createdAt,value
2018-12-14T00:08:06.323Z,30.87
2018-12-14T00:16:27.378Z,27.07
2018-12-14T00:24:48.500Z,28.40
2018-12-14T00:33:09.582Z,29.93
2018-12-14T00:41:30.668Z,28.87
2018-12-14T00:49:51.697Z,31.07
2018-12-14T00:58:12.739Z,32.13
2018-12-14T01:06:33.815Z,25.53
2018-12-14T01:14:54.887Z,30.07
2018-12-14T01:23:15.963Z,27.17
2018-12-14T01:31:36.943Z,32.27
2018-12-14T01:39:58.012Z,27.70
2018-12-14T01:48:19.071Z,26.77
2018-12-14T01:56:40.146Z,26.03
2018-12-14T02:05:01.179Z,27.97
2018-12-14T02:13:22.147Z,31.07
2018-12-14T02:21:43.115Z,28.50
2018-12-14T02:30:04.195Z,27.97
2018-12-14T02:38:25.136Z,25.50
2018-12-14T02:46:46.286Z,26.97
2018-12-14T02:55:07.429Z,26.60
2018-12-14T03:03:28.460Z,25.57
2018-12-14T03:11:49.511Z,25.67
2018-12-14T03:20:10.463Z,23.37
2018-12-14T03:28:31.488Z,23.70
2018-12-14T03:36:52.581Z,23.17
2018-12-14T03:45:13.677Z,25.23
2018-12-14T03:53:34.691Z,21.80
2018-12-14T04:01:55.748Z,23.43
2018-12-14T04:10:16.768Z,25.20
2018-12-14T04:18:38.017Z,22.40
2018-12-14T04:26:59.062Z,21.73
2018-12-14T04:35:20.200Z,22.27
2018-12-14T04:43:41.247Z,22.43
2018-12-14T04:52:06.894Z,24.03
2018-12-14T05:00:28.024Z,24.33
2018-12-14T05:08:49.051Z,23.53
2018-12-14T05:17:10.220Z,20.07
2018-12-14T05:25:31.278Z,22.83
2018-12-14T05:33:52.259Z,23.73
2018-12-14T05:42:13.331Z,24.17
2018-12-14T05:50:34.372Z,23.20
2018-12-14T05:58:55.439Z,22.77
2018-12-14T06:07:16.403Z,23.73
2018-12-14T06:15:37.351Z,25.20
2018-12-14T06:23:58.310Z,22.47
2018-12-14T06:32:19.347Z,22.97
2018-12-14T06:40:40.391Z,18.67
2018-12-14T06:49:02.017Z,22.87
2018-12-14T06:57:23.079Z,21.87
2018-12-14T07:05:44.138Z,20.20
2018-12-14T07:14:05.074Z,22.83
2018-12-14T07:22:26.179Z,21.10
2018-12-14T07:30:47.207Z,22.77
2018-12-14T07:39:08.369Z,20.17
2018-12-14T07:47:29.407Z,18.47
2018-12-14T07:55:50.446Z,20.20
2018-12-14T08:04:11.511Z,23.03
2018-12-14T08:12:32.548Z,20.27
2018-12-14T08:20:53.493Z,23.90
2018-12-14T08:29:14.615Z,20.20
2018-12-14T08:37:35.747Z,23.20
2018-12-14T08:45:56.791Z,24.47
2018-12-14T08:54:17.814Z,24.23
2018-12-14T09:02:38.827Z,23.37
2018-12-14T09:10:59.855Z,25.53
2018-12-14T09:19:20.871Z,23.00
2018-12-14T09:27:41.959Z,21.87
2018-12-14T09:36:03.175Z,23.53
2018-12-14T09:44:24.278Z,23.43
2018-12-14T09:52:45.395Z,22.50
2018-12-14T10:01:06.451Z,20.47
2018-12-14T10:09:27.508Z,22.67
2018-12-14T10:17:48.652Z,21.43
2018-12-14T10:26:09.670Z,23.87
2018-12-14T10:34:30.794Z,22.37
2018-12-14T10:42:51.878Z,23.93
2018-12-14T10:51:12.926Z,21.90
2018-12-14T10:59:34.078Z,25.40
2018-12-14T11:07:55.126Z,24.30
2018-12-14T11:16:16.143Z,23.10
2018-12-14T11:24:37.219Z,27.33
2018-12-14T11:32:58.267Z,29.27
2018-12-14T17:19:00.660Z,22.97
2018-12-14T17:21:01.763Z,25.60
2018-12-14T17:23:02.756Z,25.20
2018-12-14T17:25:03.768Z,23.27
2018-12-14T17:27:04.699Z,23.23
2018-12-14T17:29:05.731Z,23.03
2018-12-14T17:31:06.819Z,22.83
2018-12-14T17:33:07.743Z,24.47
2018-12-14T17:35:08.807Z,24.97
2018-12-14T17:37:09.858Z,23.90
2018-12-14T17:39:10.912Z,24.53
2018-12-14T17:41:11.983Z,24.83
2018-12-14T17:43:12.923Z,22.30
2018-12-14T17:45:13.960Z,23.77
2018-12-14T17:47:15.002Z,23.50
2018-12-14T17:49:16.108Z,24.10
2018-12-14T17:51:17.159Z,23.50
2018-12-14T17:53:18.171Z,26.23
2018-12-14T17:55:19.187Z,24.50
2018-12-14T17:57:20.235Z,24.43
2018-12-14T17:59:21.316Z,22.70
2018-12-14T18:01:22.235Z,24.13
2018-12-14T18:03:23.295Z,24.50
2018-12-14T18:05:24.459Z,24.60
2018-12-14T18:07:25.578Z,26.77
2018-12-14T18:09:26.623Z,23.90
2018-12-14T18:11:27.735Z,23.57
2018-12-14T18:13:28.808Z,22.73
2018-12-14T18:15:29.994Z,21.87
2018-12-14T18:17:31.010Z,21.07
2018-12-14T18:19:32.063Z,22.67
2018-12-14T18:21:33.092Z,22.93
2018-12-14T18:23:34.143Z,25.97
2018-12-14T18:25:35.339Z,22.60
2018-12-14T18:27:36.379Z,24.50
2018-12-14T18:29:37.433Z,21.67
2018-12-14T18:31:38.523Z,23.83
2018-12-14T18:33:39.536Z,23.23
2018-12-14T18:35:40.571Z,23.80
2018-12-14T18:37:41.644Z,23.37
2018-12-14T18:39:42.739Z,22.17
2018-12-14T18:41:43.832Z,22.40
2018-12-14T18:43:44.875Z,21.07
2018-12-14T18:45:45.899Z,21.10
2018-12-14T18:47:47.006Z,22.20
2018-12-14T18:49:47.950Z,22.47
2018-12-14T18:51:49.003Z,21.33
2018-12-14T18:53:53.343Z,21.10
2018-12-14T18:55:54.369Z,20.33
2018-12-14T18:57:55.507Z,21.57
2018-12-14T18:59:56.611Z,22.80
2018-12-14T19:01:57.526Z,20.93
2018-12-14T19:03:58.595Z,19.60
2018-12-14T19:05:59.531Z,19.40
2018-12-14T19:08:00.647Z,19.50
2018-12-14T19:10:01.740Z,21.57
2018-12-14T19:12:02.775Z,20.43
2018-12-14T19:14:03.806Z,19.73
2018-12-14T19:16:04.827Z,22.00
2018-12-14T19:18:05.860Z,20.20
2018-12-14T19:20:06.906Z,22.73
2018-12-14T19:22:07.916Z,21.13
2018-12-14T19:24:09.044Z,19.93
2018-12-14T19:26:10.056Z,19.13
2018-12-14T19:28:11.063Z,19.77
2018-12-14T19:30:12.087Z,21.60
2018-12-14T19:32:13.123Z,18.90
2018-12-14T19:34:14.167Z,20.10
2018-12-14T19:36:15.287Z,20.00
2018-12-14T19:38:16.385Z,22.93
2018-12-14T19:40:17.394Z,21.77
2018-12-14T19:42:18.421Z,20.60
2018-12-14T19:44:19.518Z,21.83
2018-12-14T19:46:20.566Z,20.60
2018-12-14T19:48:21.587Z,19.77
2018-12-14T19:50:22.607Z,16.93
2018-12-14T19:52:23.730Z,17.83
2018-12-14T19:54:24.957Z,18.23
2018-12-14T19:56:26.031Z,19.13
2018-12-14T19:58:27.043Z,18.60
2018-12-14T20:00:28.055Z,20.50
2018-12-14T20:02:29.178Z,19.50
2018-12-14T20:04:30.288Z,18.73
2018-12-14T20:06:31.309Z,20.27
2018-12-14T20:08:32.333Z,19.33
2018-12-14T20:10:33.334Z,20.83
2018-12-14T20:12:34.347Z,21.10
2018-12-14T20:14:35.367Z,22.37
2018-12-14T20:16:37.322Z,21.47
2018-12-14T20:18:38.461Z,18.43
2018-12-14T20:20:39.575Z,19.53
2018-12-14T20:22:40.593Z,21.40
2018-12-14T20:24:41.722Z,20.77
2018-12-14T20:26:42.731Z,20.80
2018-12-14T20:28:43.758Z,20.40
2018-12-14T20:30:44.768Z,22.97
2018-12-14T20:32:45.844Z,20.70
2018-12-14T20:34:46.859Z,20.47
2018-12-14T20:36:47.867Z,20.30
2018-12-14T20:38:48.963Z,21.07
2018-12-14T20:40:50.084Z,20.23
2018-12-14T20:42:51.093Z,18.47
2018-12-14T20:44:52.190Z,21.37
2018-12-14T20:46:53.297Z,20.73
2018-12-14T20:48:54.339Z,20.37
2018-12-14T20:50:55.389Z,21.10
2018-12-14T20:52:56.406Z,21.27
2018-12-14T20:54:57.455Z,20.03
2018-12-14T20:56:58.503Z,21.20
2018-12-14T20:58:59.516Z,20.50
2018-12-14T21:01:00.675Z,21.17
2018-12-14T21:03:01.685Z,18.73
2018-12-14T21:05:02.707Z,19.03
2018-12-14T21:07:03.731Z,21.87
2018-12-14T21:09:04.667Z,19.80
2018-12-14T21:11:05.754Z,19.83
2018-12-14T21:13:06.827Z,20.13
2018-12-14T21:15:08.619Z,20.40
2018-12-14T21:17:10.491Z,20.93
2018-12-14T21:19:11.856Z,22.83
2018-12-14T21:21:12.907Z,18.47
2018-12-14T21:23:13.932Z,19.03
2018-12-14T21:25:14.967Z,21.40
2018-12-14T21:27:15.987Z,19.80
2018-12-14T21:29:17.022Z,18.93
2018-12-14T21:31:18.073Z,19.87
2018-12-14T21:33:19.088Z,20.70
2018-12-14T21:35:20.126Z,19.30
2018-12-14T21:37:21.160Z,20.73
2018-12-14T21:39:22.240Z,19.97
2018-12-14T21:41:23.281Z,18.47
2018-12-14T21:43:24.311Z,19.50
2018-12-14T21:45:25.335Z,18.43
2018-12-14T21:47:26.347Z,21.87
2018-12-14T21:49:27.467Z,21.17
2018-12-14T21:51:28.516Z,21.00
2018-12-14T21:53:29.726Z,20.67
2018-12-14T21:55:30.740Z,19.97
2018-12-14T21:57:31.875Z,19.73
2018-12-14T21:59:32.883Z,19.77
2018-12-14T22:01:33.931Z,21.90
2018-12-14T22:03:34.965Z,19.70
2018-12-14T22:05:35.994Z,20.07
2018-12-14T22:07:37.004Z,21.57
2018-12-14T22:09:38.079Z,21.17
2018-12-14T22:11:39.082Z,25.97
2018-12-14T22:13:40.111Z,23.20
2018-12-14T22:15:41.227Z,22.03
2018-12-14T22:17:42.259Z,22.57
2018-12-14T22:19:43.285Z,20.63
2018-12-14T22:21:44.414Z,22.10
2018-12-14T22:23:45.468Z,19.23
2018-12-14T22:25:46.494Z,20.10
2018-12-14T22:27:47.611Z,19.73
2018-12-14T22:29:48.615Z,19.60
2018-12-14T22:31:49.749Z,20.60
2018-12-14T22:33:50.755Z,18.23
2018-12-14T22:35:51.798Z,21.77
2018-12-14T22:37:52.803Z,22.37
2018-12-14T22:39:54.039Z,23.00
2018-12-14T22:41:55.067Z,26.73
2018-12-14T22:43:56.075Z,23.53
2018-12-14T22:45:57.078Z,25.30
2018-12-14T22:47:58.113Z,22.77
2018-12-14T22:49:59.121Z,23.50
2018-12-14T22:52:00.331Z,25.10
2018-12-14T22:54:01.355Z,23.37
2018-12-14T22:56:02.406Z,22.30
2018-12-14T22:58:03.450Z,22.00
2018-12-14T23:00:04.590Z,23.27
2018-12-14T23:02:05.631Z,21.13
2018-12-14T23:04:06.640Z,19.90
2018-12-14T23:06:07.712Z,20.87
2018-12-14T23:08:08.869Z,22.23
2018-12-14T23:10:09.996Z,21.20
2018-12-14T23:12:11.104Z,20.33
2018-12-14T23:14:12.149Z,19.67
2018-12-14T23:16:13.267Z,18.40
2018-12-14T23:18:14.291Z,19.53
2018-12-14T23:20:15.299Z,19.50
2018-12-14T23:22:16.327Z,19.50
2018-12-14T23:24:17.358Z,18.90
2018-12-14T23:26:18.367Z,21.63
2018-12-14T23:28:19.296Z,20.60
2018-12-14T23:30:20.319Z,20.23
2018-12-14T23:32:21.376Z,24.50
2018-12-14T23:34:22.378Z,21.47
2018-12-14T23:36:23.402Z,18.30
2018-12-14T23:38:24.416Z,19.53
2018-12-14T23:40:25.423Z,19.03
2018-12-14T23:42:26.478Z,19.13
2018-12-14T23:44:27.495Z,21.13
2018-12-14T23:46:28.554Z,19.27
2018-12-14T23:48:29.559Z,19.93
2018-12-14T23:50:30.567Z,21.07
2018-12-14T23:52:31.591Z,21.37
2018-12-14T23:54:32.627Z,22.17
2018-12-14T23:56:33.647Z,19.87
2018-12-14T23:58:34.690Z,22.27
